Time;durP1;ratioP1;P1;durP2;ratioP2;P2;SDS_P1;SDS_P2;PMS_P1;PMS_P2;Temp;Humidity;BMP_temperature;BMP_pressure;BME280_temperature;BME280_humidity;BME280_pressure;Samples;Min_cycle;Max_cycle;Signal;HPM_P1;HPM_P2
2024/03/21 00:01:03;;;;;;;11.70;3.30;;;;;;;;;;4736155;30;20048;-82
2024/03/21 00:03:33;;;;;;;11.25;2.40;;;;;;;;;;4721721;30;20056;-81
2024/03/21 00:06:01;;;;;;;8.95;2.80;;;;;;;;;;4736153;30;20048;-81
2024/03/21 00:08:30;;;;;;;7.15;1.80;;;;;;;;;;4690497;30;20052;-81
2024/03/21 00:10:58;;;;;;;12.35;2.00;;;;;;;;;;4716594;30;20051;-83
2024/03/21 00:13:26;;;;;;;7.35;2.15;;;;;;;;;;4717469;30;20052;-82
2024/03/21 00:15:54;;;;;;;6.95;2.03;;;;;;;;;;4716883;30;20052;-81
2024/03/21 00:18:23;;;;;;;7.00;2.05;;;;;;;;;;4716759;30;20060;-81
2024/03/21 00:20:51;;;;;;;9.50;1.95;;;;;;;;;;4700766;30;20060;-81
2024/03/21 00:23:20;;;;;;;5.13;1.83;;;;;;;;;;4716379;30;20053;-82
2024/03/21 00:25:48;;;;;;;5.93;1.85;;;;;;;;;;4716543;30;20060;-82
2024/03/21 00:28:17;;;;;;;6.75;1.80;;;;;;;;;;4717005;30;20041;-82
2024/03/21 00:30:49;;;;;;;6.45;2.15;;;;;;;;;;4717290;30;20428;-82
2024/03/21 00:33:17;;;;;;;6.88;2.17;;;;;;;;;;4716672;30;20429;-82
2024/03/21 00:35:46;;;;;;;6.13;2.08;;;;;;;;;;4716506;30;20072;-83
2024/03/21 00:38:14;;;;;;;8.05;2.35;;;;;;;;;;4716807;30;20060;-82
2024/03/21 00:40:43;;;;;;;7.82;2.40;;;;;;;;;;4716459;30;20055;-81
2024/03/21 00:43:11;;;;;;;6.82;1.83;;;;;;;;;;4716685;30;20059;-81
2024/03/21 00:45:39;;;;;;;10.82;1.70;;;;;;;;;;4716744;30;20056;-82
2024/03/21 00:48:07;;;;;;;6.53;1.77;;;;;;;;;;4716588;30;20069;-82
2024/03/21 00:50:35;;;;;;;6.72;1.95;;;;;;;;;;4716266;30;20053;-82
2024/03/21 00:53:05;;;;;;;6.05;1.52;;;;;;;;;;4716596;30;20059;-82
2024/03/21 00:55:34;;;;;;;8.50;1.92;;;;;;;;;;4716679;30;20440;-82
2024/03/21 00:58:02;;;;;;;9.88;1.85;;;;;;;;;;4716422;30;20063;-81
2024/03/21 01:00:30;;;;;;;6.78;1.73;;;;;;;;;;4716602;30;20060;-81
2024/03/21 01:02:58;;;;;;;7.97;1.73;;;;;;;;;;4716245;30;20148;-82
2024/03/21 01:05:27;;;;;;;7.30;1.85;;;;;;;;;;4716289;30;20519;-81
2024/03/21 01:07:55;;;;;;;6.05;2.17;;;;;;;;;;4716434;30;20639;-81
2024/03/21 01:10:24;;;;;;;7.53;2.08;;;;;;;;;;4716327;30;20064;-81
2024/03/21 01:12:52;;;;;;;8.60;1.83;;;;;;;;;;4721479;30;20068;-82
2024/03/21 01:15:20;;;;;;;12.68;2.70;;;;;;;;;;4733771;30;20051;-82
2024/03/21 01:17:49;;;;;;;4.70;2.28;;;;;;;;;;4733460;30;20424;-82
2024/03/21 01:20:17;;;;;;;5.47;1.70;;;;;;;;;;4733843;30;20052;-82
2024/03/21 01:22:46;;;;;;;6.15;1.80;;;;;;;;;;4723234;30;20052;-82
2024/03/21 01:25:14;;;;;;;14.20;1.88;;;;;;;;;;4716320;30;20052;-83
2024/03/21 01:27:42;;;;;;;5.43;1.85;;;;;;;;;;4716219;30;20528;-81
2024/03/21 01:30:12;;;;;;;6.05;1.70;;;;;;;;;;4716324;30;20057;-81
2024/03/21 01:32:40;;;;;;;7.28;1.95;;;;;;;;;;4718072;30;20501;-81
2024/03/21 01:35:09;;;;;;;9.80;1.73;;;;;;;;;;4719222;30;20065;-82
2024/03/21 01:37:37;;;;;;;12.50;1.63;;;;;;;;;;4719183;30;20505;-82
2024/03/21 01:40:11;;;;;;;4.72;1.65;;;;;;;;;;4719580;30;20065;-82
2024/03/21 01:42:39;;;;;;;5.55;1.80;;;;;;;;;;4732021;30;20446;-82
2024/03/21 01:45:08;;;;;;;11.85;1.90;;;;;;;;;;4719834;30;20502;-82
2024/03/21 01:47:36;;;;;;;7.28;1.90;;;;;;;;;;4720164;30;20053;-82
2024/03/21 01:50:06;;;;;;;6.75;1.70;;;;;;;;;;4720633;30;20053;-82
2024/03/21 01:52:36;;;;;;;6.53;1.60;;;;;;;;;;4720765;30;20056;-82
2024/03/21 01:55:05;;;;;;;7.43;1.83;;;;;;;;;;4720585;30;20053;-82
2024/03/21 01:57:35;;;;;;;5.38;1.50;;;;;;;;;;4721138;30;20505;-82
2024/03/21 02:00:04;;;;;;;6.30;1.70;;;;;;;;;;4721983;30;20056;-83
2024/03/21 02:02:35;;;;;;;8.30;1.70;;;;;;;;;;4750355;30;20044;-83
2024/03/21 02:05:04;;;;;;;7.30;1.73;;;;;;;;;;4722442;30;20060;-82
2024/03/21 02:07:32;;;;;;;8.32;2.60;;;;;;;;;;4706670;30;20053;-81
2024/03/21 02:10:02;;;;;;;10.23;1.98;;;;;;;;;;4720781;30;20526;-82
2024/03/21 02:12:48;;;;;;;10.93;2.10;;;;;;;;;;4720439;30;20065;-81
2024/03/21 02:15:17;;;;;;;8.13;1.98;;;;;;;;;;4749691;30;20055;-81
2024/03/21 02:17:46;;;;;;;11.30;1.75;;;;;;;;;;4720164;30;20052;-82
2024/03/21 02:20:14;;;;;;;9.07;2.47;;;;;;;;;;4719408;30;20065;-82
2024/03/21 02:22:42;;;;;;;8.27;1.80;;;;;;;;;;4720206;30;20072;-83
2024/03/21 02:25:12;;;;;;;4.63;1.50;;;;;;;;;;4720302;30;20048;-84
2024/03/21 02:27:43;;;;;;;6.80;2.00;;;;;;;;;;4720415;30;20063;-83
2024/03/21 02:30:14;;;;;;;11.40;2.22;;;;;;;;;;4706641;30;20056;-82
2024/03/21 02:32:42;;;;;;;9.80;1.95;;;;;;;;;;4721463;30;20059;-82
2024/03/21 02:35:10;;;;;;;15.52;2.72;;;;;;;;;;4720206;30;20056;-82
2024/03/21 02:37:39;;;;;;;3.85;2.08;;;;;;;;;;4706077;30;20397;-84
2024/03/21 02:40:09;;;;;;;7.18;2.88;;;;;;;;;;4719901;30;20539;-82
2024/03/21 02:42:37;;;;;;;6.20;1.60;;;;;;;;;;4705198;30;20052;-81
2024/03/21 02:45:06;;;;;;;6.07;2.25;;;;;;;;;;4718981;30;20460;-83
2024/03/21 02:47:35;;;;;;;8.55;2.35;;;;;;;;;;4720461;30;20413;-82
2024/03/21 02:50:04;;;;;;;6.25;1.73;;;;;;;;;;4720340;30;20413;-83
2024/03/21 02:52:32;;;;;;;6.00;1.60;;;;;;;;;;4719828;30;20074;-82
2024/03/21 02:55:00;;;;;;;4.90;1.73;;;;;;;;;;4706236;30;20055;-82
2024/03/21 02:57:29;;;;;;;3.95;1.60;;;;;;;;;;4719827;30;20060;-82
2024/03/21 02:59:57;;;;;;;3.53;1.80;;;;;;;;;;4719469;30;20048;-81
2024/03/21 03:02:26;;;;;;;8.50;1.88;;;;;;;;;;4719527;30;20063;-83
2024/03/21 03:04:54;;;;;;;3.58;1.92;;;;;;;;;;4719719;30;20505;-81
2024/03/21 03:07:23;;;;;;;6.28;1.33;;;;;;;;;;4719562;30;20417;-82
2024/03/21 03:09:51;;;;;;;5.47;1.60;;;;;;;;;;4719402;30;20073;-82
2024/03/21 03:12:19;;;;;;;5.55;1.65;;;;;;;;;;4704832;30;20512;-81
2024/03/21 03:14:47;;;;;;;4.38;1.60;;;;;;;;;;4719873;30;20048;-82
2024/03/21 03:17:16;;;;;;;6.28;1.50;;;;;;;;;;4705394;30;20057;-83
2024/03/21 03:19:44;;;;;;;4.55;1.80;;;;;;;;;;4719442;30;20061;-83
2024/03/21 03:22:12;;;;;;;8.10;1.48;;;;;;;;;;4719689;30;20056;-81
2024/03/21 03:24:40;;;;;;;3.65;1.52;;;;;;;;;;4718415;30;20056;-83
2024/03/21 03:27:08;;;;;;;3.28;1.63;;;;;;;;;;4717335;30;20052;-83
2024/03/21 03:29:36;;;;;;;5.60;1.63;;;;;;;;;;4717999;30;20060;-84
2024/03/21 03:32:07;;;;;;;9.27;1.70;;;;;;;;;;4717771;30;20528;-82
2024/03/21 03:37:23;;;;;;;13.30;2.28;;;;;;;;;;4717718;30;20045;-84
2024/03/21 03:39:51;;;;;;;5.75;1.85;;;;;;;;;;4719016;30;20416;-83
2024/03/21 03:42:20;;;;;;;4.50;1.60;;;;;;;;;;4718825;30;20453;-82
2024/03/21 03:44:48;;;;;;;4.43;1.60;;;;;;;;;;4716867;30;20049;-81
2024/03/21 03:47:17;;;;;;;6.00;1.40;;;;;;;;;;4716362;30;20064;-82
2024/03/21 03:49:45;;;;;;;3.15;1.42;;;;;;;;;;4716556;30;20052;-82
2024/03/21 03:52:13;;;;;;;4.18;1.50;;;;;;;;;;4716979;30;20052;-82
2024/03/21 03:54:41;;;;;;;5.45;1.80;;;;;;;;;;4701707;30;20072;-82
2024/03/21 03:57:10;;;;;;;3.22;1.63;;;;;;;;;;4716549;30;20508;-83
2024/03/21 03:59:40;;;;;;;5.88;1.42;;;;;;;;;;4716795;30;20525;-83
2024/03/21 04:02:08;;;;;;;6.57;1.50;;;;;;;;;;4716662;30;20079;-83
2024/03/21 04:04:36;;;;;;;5.03;1.60;;;;;;;;;;4702182;30;20056;-84
2024/03/21 04:07:04;;;;;;;4.03;2.00;;;;;;;;;;4716742;30;20421;-83
2024/03/21 04:09:33;;;;;;;5.13;2.60;;;;;;;;;;4716869;30;20059;-84
2024/03/21 04:12:01;;;;;;;5.35;1.70;;;;;;;;;;4716879;30;20089;-83
2024/03/21 04:14:30;;;;;;;4.72;1.23;;;;;;;;;;4716941;30;20069;-82
2024/03/21 04:16:59;;;;;;;5.97;1.35;;;;;;;;;;4717650;30;20056;-82
2024/03/21 04:19:27;;;;;;;3.80;1.20;;;;;;;;;;4718688;30;20065;-82
2024/03/21 04:21:55;;;;;;;2.80;1.23;;;;;;;;;;4718790;30;20067;-81
2024/03/21 04:24:24;;;;;;;7.65;1.50;;;;;;;;;;4718653;30;20075;-83
2024/03/21 04:26:52;;;;;;;3.67;1.33;;;;;;;;;;4732047;30;20052;-83
2024/03/21 04:29:20;;;;;;;3.47;1.40;;;;;;;;;;4718358;30;20063;-85
2024/03/21 04:31:48;;;;;;;5.20;1.33;;;;;;;;;;4718607;30;20055;-83
2024/03/21 04:34:16;;;;;;;6.50;1.33;;;;;;;;;;4718631;30;20180;-82
2024/03/21 04:36:44;;;;;;;4.32;1.50;;;;;;;;;;4718515;30;20056;-83
2024/03/21 04:39:13;;;;;;;5.82;1.30;;;;;;;;;;4718365;30;20052;-87
2024/03/21 04:41:42;;;;;;;14.80;2.13;;;;;;;;;;4717981;30;20057;-84
2024/03/21 04:44:10;;;;;;;2.55;1.20;;;;;;;;;;4717956;30;20063;-85
2024/03/21 04:46:38;;;;;;;2.33;1.15;;;;;;;;;;4718414;30;20060;-83
2024/03/21 04:49:06;;;;;;;3.58;1.20;;;;;;;;;;4732250;30;20053;-82
2024/03/21 04:51:34;;;;;;;2.33;1.23;;;;;;;;;;4718499;30;20053;-82
2024/03/21 04:54:02;;;;;;;2.60;1.20;;;;;;;;;;4718186;30;20049;-82
2024/03/21 04:56:30;;;;;;;3.80;1.70;;;;;;;;;;4718288;30;20428;-82
2024/03/21 04:58:58;;;;;;;6.70;2.58;;;;;;;;;;4718061;30;20395;-82
2024/03/21 05:01:26;;;;;;;2.55;1.13;;;;;;;;;;4718086;30;20057;-82
2024/03/21 05:03:54;;;;;;;2.22;1.00;;;;;;;;;;4718129;30;20059;-82
2024/03/21 05:06:23;;;;;;;3.63;1.40;;;;;;;;;;4718379;30;20147;-83
2024/03/21 05:08:52;;;;;;;3.17;1.55;;;;;;;;;;4721229;30;20053;-82
2024/03/21 05:11:20;;;;;;;6.90;1.20;;;;;;;;;;4721218;30;20060;-81
2024/03/21 05:13:50;;;;;;;4.90;1.30;;;;;;;;;;4721499;30;20056;-82
2024/03/21 05:16:18;;;;;;;5.18;1.40;;;;;;;;;;4721396;30;20072;-81
2024/03/21 05:18:48;;;;;;;4.03;1.38;;;;;;;;;;4721379;30;20049;-80
2024/03/21 05:21:16;;;;;;;2.10;1.10;;;;;;;;;;4721250;30;20081;-85
2024/03/21 05:23:44;;;;;;;3.45;1.25;;;;;;;;;;4721194;30;20060;-80
2024/03/21 05:26:13;;;;;;;5.65;1.67;;;;;;;;;;4707137;30;20432;-82
2024/03/21 05:28:41;;;;;;;3.88;1.50;;;;;;;;;;4721466;30;20052;-80
2024/03/21 05:31:25;;;;;;;3.35;1.23;;;;;;;;;;4721220;30;20064;-81
2024/03/21 05:33:54;;;;;;;5.20;1.17;;;;;;;;;;4721212;30;20052;-80
2024/03/21 05:36:24;;;;;;;2.83;1.33;;;;;;;;;;4721170;30;20068;-79
2024/03/21 05:38:53;;;;;;;3.22;1.13;;;;;;;;;;4721211;30;20053;-80
2024/03/21 05:41:21;;;;;;;2.05;1.25;;;;;;;;;;4720860;30;20040;-80
2024/03/21 05:43:50;;;;;;;2.58;1.30;;;;;;;;;;4720937;30;20060;-81
2024/03/21 05:46:18;;;;;;;4.55;1.10;;;;;;;;;;4720732;30;20129;-80
2024/03/21 05:48:46;;;;;;;2.15;1.27;;;;;;;;;;4720991;30;20060;-80
2024/03/21 05:51:15;;;;;;;4.68;1.65;;;;;;;;;;4720723;30;20056;-81
2024/03/21 05:53:43;;;;;;;6.20;1.17;;;;;;;;;;4720974;30;20056;-81
2024/03/21 05:56:11;;;;;;;4.80;1.23;;;;;;;;;;4720895;30;20053;-81
2024/03/21 05:58:39;;;;;;;3.85;1.13;;;;;;;;;;4705948;30;20087;-82
2024/03/21 06:03:36;;;;;;;5.28;1.20;;;;;;;;;;4720848;30;20501;-81
2024/03/21 06:06:04;;;;;;;5.32;1.33;;;;;;;;;;4720768;30;20049;-82
2024/03/21 06:08:32;;;;;;;3.63;1.38;;;;;;;;;;4720472;30;20501;-84
2024/03/21 06:11:01;;;;;;;2.45;1.13;;;;;;;;;;4706066;30;20073;-82
2024/03/21 06:13:29;;;;;;;5.72;1.38;;;;;;;;;;4720400;30;20061;-83
2024/03/21 06:15:57;;;;;;;5.63;1.33;;;;;;;;;;4720383;30;20056;-82
2024/03/21 06:18:25;;;;;;;6.07;1.27;;;;;;;;;;4720402;30;20060;-82
2024/03/21 06:20:54;;;;;;;5.13;1.20;;;;;;;;;;4720360;30;20075;-83
2024/03/21 06:23:22;;;;;;;2.40;1.10;;;;;;;;;;4720118;30;20061;-81
2024/03/21 06:25:50;;;;;;;2.72;1.08;;;;;;;;;;4719956;30;20056;-81
2024/03/21 06:28:18;;;;;;;2.70;1.48;;;;;;;;;;4720409;30;20056;-81
2024/03/21 06:30:46;;;;;;;3.28;1.30;;;;;;;;;;4720044;30;20501;-81
2024/03/21 06:33:14;;;;;;;2.30;1.25;;;;;;;;;;4720030;30;20064;-81
2024/03/21 06:35:42;;;;;;;4.93;1.08;;;;;;;;;;4720446;30;20049;-81
2024/03/21 06:38:12;;;;;;;3.13;1.25;;;;;;;;;;4720042;30;20059;-82
2024/03/21 06:40:40;;;;;;;2.38;1.23;;;;;;;;;;4719868;30;20056;-81
2024/03/21 06:43:09;;;;;;;4.25;1.10;;;;;;;;;;4720028;30;20049;-83
2024/03/21 06:45:37;;;;;;;2.53;1.45;;;;;;;;;;4719832;30;20052;-80
2024/03/21 06:48:05;;;;;;;5.65;1.45;;;;;;;;;;4705194;30;20539;-82
2024/03/21 06:50:33;;;;;;;3.38;0.90;;;;;;;;;;4719730;30;20071;-81
2024/03/21 06:53:02;;;;;;;2.13;0.93;;;;;;;;;;4705480;30;20068;-81
2024/03/21 06:55:30;;;;;;;2.38;1.17;;;;;;;;;;4720399;30;20501;-81
2024/03/21 06:57:58;;;;;;;2.10;0.93;;;;;;;;;;4720044;30;20100;-81
2024/03/21 07:00:28;;;;;;;4.72;1.48;;;;;;;;;;4719919;30;20064;-81
2024/03/21 07:02:56;;;;;;;2.63;1.20;;;;;;;;;;4719790;30;20060;-81
2024/03/21 07:05:24;;;;;;;2.85;1.40;;;;;;;;;;4720208;30;20073;-82
2024/03/21 07:07:55;;;;;;;2.17;1.08;;;;;;;;;;4720174;30;20055;-81
2024/03/21 07:10:23;;;;;;;4.45;1.13;;;;;;;;;;4720114;30;20052;-81
2024/03/21 07:12:52;;;;;;;5.40;1.40;;;;;;;;;;4719805;30;20064;-82
2024/03/21 07:15:20;;;;;;;2.65;1.20;;;;;;;;;;4719740;30;20049;-82
2024/03/21 07:17:48;;;;;;;3.90;1.15;;;;;;;;;;4720305;30;20053;-82
2024/03/21 07:20:17;;;;;;;4.35;1.35;;;;;;;;;;4704771;30;20060;-81
2024/03/21 07:22:46;;;;;;;6.45;1.27;;;;;;;;;;4733960;30;20052;-82
2024/03/21 07:25:15;;;;;;;3.58;1.10;;;;;;;;;;4720044;30;20497;-83
2024/03/21 07:27:43;;;;;;;4.70;1.00;;;;;;;;;;4704986;30;20067;-82
2024/03/21 07:30:15;;;;;;;4.88;1.27;;;;;;;;;;4719008;30;20045;-81
2024/03/21 07:32:45;;;;;;;3.47;1.20;;;;;;;;;;4719022;30;20049;-83
2024/03/21 07:35:13;;;;;;;4.47;1.15;;;;;;;;;;4719494;30;20493;-83
2024/03/21 07:37:41;;;;;;;3.90;1.13;;;;;;;;;;4719225;30;20056;-83
2024/03/21 07:40:10;;;;;;;4.53;1.30;;;;;;;;;;4733423;30;20061;-81
2024/03/21 07:42:38;;;;;;;4.60;1.30;;;;;;;;;;4718901;30;20049;-82
2024/03/21 07:45:08;;;;;;;4.97;1.10;;;;;;;;;;4718782;30;20504;-81
2024/03/21 07:47:38;;;;;;;4.78;1.17;;;;;;;;;;4719186;30;20061;-82
2024/03/21 07:50:06;;;;;;;5.40;1.42;;;;;;;;;;4718886;30;20401;-81
2024/03/21 07:52:34;;;;;;;3.00;1.02;;;;;;;;;;4718950;30;20045;-80
2024/03/21 07:55:02;;;;;;;4.63;1.17;;;;;;;;;;4718723;30;20044;-83
2024/03/21 07:57:31;;;;;;;2.25;1.13;;;;;;;;;;4732522;30;20163;-82
2024/03/21 07:59:59;;;;;;;2.85;1.05;;;;;;;;;;4718552;30;20059;-83
2024/03/21 08:02:27;;;;;;;3.17;1.23;;;;;;;;;;4718695;30;20068;-83
2024/03/21 08:04:56;;;;;;;2.40;1.20;;;;;;;;;;4718916;30;20505;-82
2024/03/21 08:07:25;;;;;;;5.55;1.20;;;;;;;;;;4718383;30;20118;-82
2024/03/21 08:09:54;;;;;;;1.85;1.25;;;;;;;;;;4717227;30;20049;-82
2024/03/21 08:12:22;;;;;;;5.88;1.52;;;;;;;;;;4718435;30;20421;-82
2024/03/21 08:14:50;;;;;;;2.17;1.10;;;;;;;;;;4718708;30;20063;-82
2024/03/21 08:17:18;;;;;;;9.52;1.45;;;;;;;;;;4718462;30;20053;-83
2024/03/21 08:19:50;;;;;;;4.63;1.40;;;;;;;;;;4718257;30;20052;-82
2024/03/21 08:22:19;;;;;;;2.55;1.00;;;;;;;;;;4718798;30;20060;-82
2024/03/21 08:24:48;;;;;;;3.95;1.83;;;;;;;;;;4718041;30;20409;-82
2024/03/21 08:27:18;;;;;;;4.25;1.55;;;;;;;;;;4718492;30;20052;-82
2024/03/21 08:29:49;;;;;;;5.18;1.40;;;;;;;;;;4717854;30;20060;-81
2024/03/21 08:32:21;;;;;;;5.57;1.65;;;;;;;;;;4718580;30;20413;-81
2024/03/21 08:34:50;;;;;;;3.60;1.27;;;;;;;;;;4718527;30;20056;-81
2024/03/21 08:37:18;;;;;;;6.45;1.20;;;;;;;;;;4718136;30;20068;-82
2024/03/21 08:39:47;;;;;;;2.85;1.30;;;;;;;;;;4718391;30;20056;-81
2024/03/21 08:42:15;;;;;;;6.70;2.00;;;;;;;;;;4720468;30;20129;-81
2024/03/21 08:44:43;;;;;;;5.55;1.35;;;;;;;;;;4722120;30;20057;-81
2024/03/21 08:47:12;;;;;;;4.45;1.30;;;;;;;;;;4707447;30;20052;-82
2024/03/21 08:49:41;;;;;;;6.65;1.48;;;;;;;;;;4721415;30;20052;-81
2024/03/21 08:52:09;;;;;;;5.97;1.63;;;;;;;;;;4721744;30;20428;-82
2024/03/21 08:54:37;;;;;;;3.50;1.20;;;;;;;;;;4722066;30;20154;-80
2024/03/21 08:57:05;;;;;;;3.33;1.17;;;;;;;;;;4722195;30;20055;-81
2024/03/21 08:59:34;;;;;;;2.90;1.08;;;;;;;;;;4722171;30;20056;-80
2024/03/21 09:02:04;;;;;;;7.47;1.20;;;;;;;;;;4721355;30;20056;-82
2024/03/21 09:04:33;;;;;;;3.35;1.42;;;;;;;;;;4721722;30;20512;-82
2024/03/21 09:07:01;;;;;;;5.45;1.17;;;;;;;;;;4721616;30;20048;-81
2024/03/21 09:09:29;;;;;;;10.60;1.30;;;;;;;;;;4721478;30;20489;-82
2024/03/21 09:11:57;;;;;;;4.28;1.10;;;;;;;;;;4721363;30;20052;-81
2024/03/21 09:14:26;;;;;;;5.93;1.38;;;;;;;;;;4721524;30;20044;-82
2024/03/21 09:16:54;;;;;;;4.57;1.40;;;;;;;;;;4721089;30;20049;-83
2024/03/21 09:19:23;;;;;;;3.22;1.38;;;;;;;;;;4721445;30;20056;-81
2024/03/21 09:21:51;;;;;;;2.63;1.60;;;;;;;;;;4720968;30;20056;-80
2024/03/21 09:24:19;;;;;;;4.57;1.50;;;;;;;;;;4720819;30;20052;-81
2024/03/21 09:26:48;;;;;;;4.70;1.50;;;;;;;;;;4721111;30;20056;-81
2024/03/21 09:29:17;;;;;;;8.80;1.50;;;;;;;;;;4720823;30;20056;-81
2024/03/21 09:31:45;;;;;;;5.45;1.70;;;;;;;;;;4720954;30;20048;-82
2024/03/21 09:34:13;;;;;;;3.85;1.70;;;;;;;;;;4721082;30;20060;-80
2024/03/21 09:36:46;;;;;;;5.25;1.75;;;;;;;;;;4720896;30;20053;-82
2024/03/21 09:39:16;;;;;;;5.78;1.30;;;;;;;;;;4721147;30;20052;-82
2024/03/21 09:41:45;;;;;;;6.47;1.50;;;;;;;;;;4720560;30;20137;-82
2024/03/21 09:44:14;;;;;;;3.92;1.42;;;;;;;;;;4721037;30;20056;-81
2024/03/21 09:46:42;;;;;;;6.65;1.60;;;;;;;;;;4720780;30;20501;-81
2024/03/21 09:49:14;;;;;;;6.25;1.90;;;;;;;;;;4720756;30;20063;-81
2024/03/21 09:51:42;;;;;;;2.28;1.30;;;;;;;;;;4720303;30;20060;-82
2024/03/21 09:54:12;;;;;;;7.45;1.67;;;;;;;;;;4720175;30;20049;-81
2024/03/21 09:56:42;;;;;;;3.75;1.50;;;;;;;;;;4720362;30;20060;-82
2024/03/21 09:59:14;;;;;;;4.75;1.40;;;;;;;;;;4721079;30;20040;-82
2024/03/21 10:01:42;;;;;;;5.35;1.27;;;;;;;;;;4720590;30;20057;-81
2024/03/21 10:04:10;;;;;;;3.97;1.58;;;;;;;;;;4720487;30;20048;-83
2024/03/21 10:06:46;;;;;;;6.38;1.70;;;;;;;;;;4720757;30;20045;-82
2024/03/21 10:09:15;;;;;;;5.60;1.30;;;;;;;;;;4720347;30;20064;-82
2024/03/21 10:11:49;;;;;;;3.28;1.25;;;;;;;;;;4720080;30;20063;-81
2024/03/21 10:14:17;;;;;;;7.28;1.40;;;;;;;;;;4720401;30;20060;-81
2024/03/21 10:16:45;;;;;;;3.58;1.20;;;;;;;;;;4720027;30;20520;-81
2024/03/21 10:19:15;;;;;;;4.45;1.42;;;;;;;;;;4719445;30;20064;-82
2024/03/21 10:21:43;;;;;;;6.10;2.13;;;;;;;;;;4720415;30;20044;-81
2024/03/21 10:24:14;;;;;;;3.22;1.30;;;;;;;;;;4720316;30;20055;-82
2024/03/21 10:26:43;;;;;;;3.63;1.08;;;;;;;;;;4720206;30;20053;-81
2024/03/21 10:41:53;;;;;;;0.43;0.40;;;;;;;;;;5089559;27;20464;-81
2024/03/21 10:44:22;;;;;;;1.95;0.30;;;;;;;;;;5088174;28;20032;-82
2024/03/21 10:46:50;;;;;;;0.95;0.30;;;;;;;;;;5087518;28;20036;-82
2024/03/21 10:49:19;;;;;;;0.80;0.22;;;;;;;;;;5087831;28;20044;-82
2024/03/21 10:51:49;;;;;;;0.50;0.32;;;;;;;;;;5088369;28;20063;-82
2024/03/21 10:54:19;;;;;;;1.55;0.40;;;;;;;;;;5088060;28;20040;-82
2024/03/21 10:56:48;;;;;;;1.05;0.43;;;;;;;;;;5072302;28;20060;-84
2024/03/21 10:59:16;;;;;;;1.00;0.22;;;;;;;;;;5088434;28;20051;-84
2024/03/21 11:01:45;;;;;;;3.70;0.30;;;;;;;;;;5087512;28;20040;-84
2024/03/21 11:04:16;;;;;;;0.93;0.28;;;;;;;;;;5088434;28;20055;-82
2024/03/21 11:06:46;;;;;;;1.58;0.28;;;;;;;;;;5054777;28;20055;-83
2024/03/21 11:09:16;;;;;;;1.00;0.40;;;;;;;;;;5087919;28;20383;-84
2024/03/21 11:11:45;;;;;;;1.92;0.32;;;;;;;;;;5088565;28;20040;-83
2024/03/21 11:14:15;;;;;;;0.68;0.30;;;;;;;;;;5070904;28;20041;-85
2024/03/21 11:16:43;;;;;;;1.20;0.30;;;;;;;;;;5071659;28;20379;-83
2024/03/21 11:19:11;;;;;;;1.30;0.32;;;;;;;;;;5087841;28;20028;-83
2024/03/21 11:21:41;;;;;;;1.58;0.57;;;;;;;;;;5072146;28;20032;-84
2024/03/21 11:24:18;;;;;;;1.13;0.40;;;;;;;;;;5088370;28;20037;-85
2024/03/21 11:26:48;;;;;;;0.40;0.30;;;;;;;;;;5071460;28;20032;-84
2024/03/21 11:29:16;;;;;;;0.38;0.32;;;;;;;;;;5087770;28;20037;-86
2024/03/21 11:31:47;;;;;;;0.52;0.20;;;;;;;;;;5087998;28;20044;-81
2024/03/21 11:34:15;;;;;;;0.13;0.13;;;;;;;;;;5087877;28;20340;-84
2024/03/21 11:36:45;;;;;;;0.60;0.35;;;;;;;;;;5087546;28;20040;-82
2024/03/21 11:39:15;;;;;;;0.28;0.20;;;;;;;;;;5087292;28;20048;-83
2024/03/21 11:41:44;;;;;;;1.10;0.22;;;;;;;;;;5063299;28;20048;-83
2024/03/21 11:44:16;;;;;;;1.20;0.30;;;;;;;;;;5074129;28;20040;-81
2024/03/21 11:46:45;;;;;;;1.30;0.40;;;;;;;;;;5074428;28;20032;-84
2024/03/21 11:49:14;;;;;;;1.13;0.35;;;;;;;;;;5057841;28;20047;-85
2024/03/21 11:51:43;;;;;;;1.33;0.22;;;;;;;;;;5073379;28;20075;-83
2024/03/21 11:54:13;;;;;;;0.52;0.20;;;;;;;;;;5074858;28;20029;-84
2024/03/21 11:56:42;;;;;;;1.38;0.60;;;;;;;;;;5072952;28;20045;-83
2024/03/21 11:59:10;;;;;;;0.45;0.10;;;;;;;;;;5072647;28;20060;-85
2024/03/21 12:01:38;;;;;;;0.85;0.30;;;;;;;;;;5071772;28;20040;-82
2024/03/21 12:04:08;;;;;;;3.17;0.28;;;;;;;;;;5073653;28;20056;-83
2024/03/21 12:06:37;;;;;;;1.05;0.60;;;;;;;;;;5073277;28;20385;-83
2024/03/21 12:09:05;;;;;;;0.35;0.10;;;;;;;;;;5056834;28;20036;-84
2024/03/21 12:11:34;;;;;;;0.32;0.20;;;;;;;;;;5071706;28;20048;-82
2024/03/21 12:14:02;;;;;;;0.68;0.52;;;;;;;;;;5071749;28;20425;-85
2024/03/21 12:16:31;;;;;;;1.20;0.45;;;;;;;;;;5073824;28;20040;-85
2024/03/21 12:19:02;;;;;;;1.27;0.30;;;;;;;;;;5073501;28;20045;-85
2024/03/21 12:21:31;;;;;;;1.05;0.20;;;;;;;;;;5073940;28;20043;-86
2024/03/21 12:23:59;;;;;;;0.77;0.32;;;;;;;;;;5056988;28;20059;-84
2024/03/21 12:26:29;;;;;;;2.28;0.20;;;;;;;;;;5073950;28;20041;-84
2024/03/21 12:29:00;;;;;;;3.03;0.90;;;;;;;;;;5073903;28;20055;-82
2024/03/21 12:31:28;;;;;;;1.55;0.22;;;;;;;;;;5056391;28;20044;-82
2024/03/21 12:34:00;;;;;;;1.05;0.20;;;;;;;;;;5070147;28;20032;-83
2024/03/21 12:36:28;;;;;;;1.83;0.52;;;;;;;;;;5073945;28;20040;-82
2024/03/21 12:38:56;;;;;;;2.67;0.63;;;;;;;;;;5073156;28;20060;-82
2024/03/21 12:41:25;;;;;;;2.83;0.40;;;;;;;;;;5074700;28;20509;-83
2024/03/21 12:43:53;;;;;;;1.00;0.38;;;;;;;;;;5078382;28;20040;-82
2024/03/21 12:46:21;;;;;;;1.25;0.50;;;;;;;;;;5078366;28;20437;-80
2024/03/21 12:48:49;;;;;;;1.17;0.43;;;;;;;;;;5079754;28;20394;-81
2024/03/21 12:51:17;;;;;;;3.83;0.80;;;;;;;;;;5076281;28;20044;-82
2024/03/21 12:53:45;;;;;;;2.60;0.30;;;;;;;;;;5071821;28;20060;-83
2024/03/21 12:56:14;;;;;;;1.63;0.40;;;;;;;;;;5072499;28;20075;-82
2024/03/21 12:58:42;;;;;;;1.30;0.22;;;;;;;;;;5056221;28;20052;-82
2024/03/21 13:01:10;;;;;;;3.95;0.40;;;;;;;;;;5055793;28;20390;-83
2024/03/21 13:03:39;;;;;;;0.60;0.28;;;;;;;;;;5072351;28;20036;-83
2024/03/21 13:06:07;;;;;;;0.70;0.35;;;;;;;;;;5068059;28;20405;-82
2024/03/21 13:08:35;;;;;;;2.63;0.50;;;;;;;;;;5051057;28;20049;-82
2024/03/21 13:11:03;;;;;;;0.50;0.30;;;;;;;;;;5071028;28;20049;-83
2024/03/21 13:13:37;;;;;;;0.88;0.52;;;;;;;;;;5055109;28;20096;-83
2024/03/21 13:16:06;;;;;;;1.27;0.40;;;;;;;;;;5071439;28;20490;-84
2024/03/21 13:18:34;;;;;;;2.67;1.33;;;;;;;;;;5068758;28;20609;-84
2024/03/21 13:21:03;;;;;;;1.48;0.60;;;;;;;;;;5069673;28;20440;-84
2024/03/21 13:23:31;;;;;;;1.10;0.38;;;;;;;;;;5071075;28;20044;-84
2024/03/21 13:25:59;;;;;;;1.95;0.60;;;;;;;;;;5070544;28;20044;-84
2024/03/21 13:28:27;;;;;;;1.52;0.50;;;;;;;;;;5070047;28;20036;-85
2024/03/21 13:30:56;;;;;;;1.50;0.63;;;;;;;;;;5052834;28;20056;-84
2024/03/21 13:33:25;;;;;;;1.00;0.50;;;;;;;;;;5071025;28;20056;-85
2024/03/21 13:35:53;;;;;;;1.20;0.50;;;;;;;;;;5053708;28;20051;-84
2024/03/21 13:38:21;;;;;;;2.55;0.52;;;;;;;;;;5071371;28;20059;-83
2024/03/21 13:40:49;;;;;;;1.55;0.43;;;;;;;;;;5054658;28;20055;-84
2024/03/21 13:43:18;;;;;;;1.65;0.30;;;;;;;;;;5071407;28;20032;-84
2024/03/21 13:45:57;;;;;;;1.98;0.50;;;;;;;;;;5066812;28;20047;-83
2024/03/21 13:48:25;;;;;;;1.10;0.60;;;;;;;;;;5056310;28;20398;-83
2024/03/21 13:50:57;;;;;;;1.23;0.32;;;;;;;;;;5072270;28;20047;-85
2024/03/21 13:53:25;;;;;;;1.42;0.57;;;;;;;;;;5071989;28;20032;-84
2024/03/21 13:55:54;;;;;;;2.42;0.52;;;;;;;;;;5071999;28;20029;-84
2024/03/21 13:58:22;;;;;;;1.25;0.20;;;;;;;;;;5072181;28;20059;-84
2024/03/21 14:00:55;;;;;;;0.50;0.30;;;;;;;;;;5043526;28;20052;-84
2024/03/21 14:03:23;;;;;;;1.77;1.33;;;;;;;;;;5072324;28;20040;-85
2024/03/21 14:05:52;;;;;;;0.73;0.47;;;;;;;;;;5071940;28;20037;-85
2024/03/21 14:08:20;;;;;;;1.77;0.70;;;;;;;;;;5055174;28;20044;-84
2024/03/21 14:10:50;;;;;;;1.75;0.65;;;;;;;;;;5071671;28;20055;-83
2024/03/21 14:13:21;;;;;;;2.85;1.02;;;;;;;;;;5055894;28;20389;-85
2024/03/21 14:15:49;;;;;;;2.53;1.20;;;;;;;;;;5070591;28;20037;-84
2024/03/21 14:18:18;;;;;;;1.40;0.55;;;;;;;;;;5051631;28;20413;-83
2024/03/21 14:20:56;;;;;;;2.05;0.30;;;;;;;;;;5070731;28;20032;-84
2024/03/21 14:23:27;;;;;;;0.90;0.28;;;;;;;;;;5065518;28;20036;-85
2024/03/21 14:25:57;;;;;;;2.30;0.30;;;;;;;;;;5070114;28;20044;-83
2024/03/21 14:28:26;;;;;;;1.98;0.40;;;;;;;;;;5072107;28;20055;-84
2024/03/21 14:30:54;;;;;;;2.45;0.55;;;;;;;;;;5054013;28;20057;-86
2024/03/21 14:33:24;;;;;;;0.70;0.25;;;;;;;;;;5054397;28;20482;-86
2024/03/21 14:35:52;;;;;;;0.55;0.30;;;;;;;;;;5071783;28;20044;-85
2024/03/21 14:38:20;;;;;;;0.98;0.32;;;;;;;;;;5071369;28;20043;-83
2024/03/21 14:40:48;;;;;;;0.80;0.52;;;;;;;;;;5054362;28;20060;-86
2024/03/21 14:43:17;;;;;;;0.98;0.57;;;;;;;;;;5070342;28;20040;-83
2024/03/21 14:45:45;;;;;;;1.45;0.43;;;;;;;;;;5052910;28;20055;-84
2024/03/21 14:48:13;;;;;;;1.45;0.55;;;;;;;;;;5069699;28;20055;-84
2024/03/21 14:50:41;;;;;;;3.22;1.15;;;;;;;;;;5070017;28;20041;-84
2024/03/21 14:53:09;;;;;;;1.30;0.73;;;;;;;;;;5055500;28;20048;-84
2024/03/21 14:55:38;;;;;;;6.68;0.98;;;;;;;;;;5054428;28;20044;-84
2024/03/21 14:58:06;;;;;;;1.13;0.60;;;;;;;;;;5069215;28;20587;-84
2024/03/21 15:00:34;;;;;;;0.88;0.45;;;;;;;;;;5053678;28;20048;-83
2024/03/21 15:03:04;;;;;;;1.67;0.90;;;;;;;;;;5069127;28;20474;-84
2024/03/21 15:05:32;;;;;;;2.00;0.70;;;;;;;;;;5070342;28;20043;-85
2024/03/21 15:08:00;;;;;;;1.90;0.60;;;;;;;;;;5070412;28;20047;-86
2024/03/21 15:10:29;;;;;;;2.15;0.65;;;;;;;;;;5070653;28;20450;-86